createdAt,value
2023-04-08T00:01:36.832Z,99.90
2023-04-08T00:04:04.686Z,99.90
2023-04-08T00:06:31.881Z,99.90
2023-04-08T00:08:59.263Z,99.90
2023-04-08T00:11:26.336Z,99.90
2023-04-08T00:13:53.681Z,99.90
2023-04-08T00:16:21.256Z,99.90
2023-04-08T00:18:49.559Z,99.90
2023-04-08T00:21:18.082Z,99.90
2023-04-08T00:23:45.494Z,99.90
2023-04-08T00:26:12.613Z,99.90
2023-04-08T00:28:42.706Z,99.90
2023-04-08T00:31:10.543Z,99.90
2023-04-08T00:33:38.115Z,99.90
2023-04-08T00:36:05.572Z,99.90
2023-04-08T00:38:32.918Z,99.90
2023-04-08T00:41:00.122Z,99.90
2023-04-08T00:43:27.667Z,99.90
2023-04-08T00:45:54.988Z,99.90
2023-04-08T00:48:22.373Z,99.90
2023-04-08T00:50:49.453Z,99.90
2023-04-08T00:53:20.366Z,99.90
2023-04-08T00:55:47.597Z,99.90
2023-04-08T00:58:15.245Z,99.90
2023-04-08T01:00:52.956Z,99.90
2023-04-08T01:03:59.679Z,99.90
2023-04-08T01:06:42.809Z,99.90
2023-04-08T01:09:11.620Z,99.90
2023-04-08T01:11:43.600Z,99.90
2023-04-08T01:14:15.358Z,99.90
2023-04-08T01:16:44.093Z,99.90
2023-04-08T01:19:24.455Z,99.90
2023-04-08T01:21:51.979Z,99.90
2023-04-08T01:24:31.502Z,99.90
2023-04-08T01:27:01.716Z,99.90
2023-04-08T01:29:30.823Z,99.90
2023-04-08T01:31:59.612Z,99.90
2023-04-08T01:34:29.794Z,99.90
2023-04-08T01:36:58.570Z,99.90
2023-04-08T01:39:26.838Z,99.90
2023-04-08T01:41:56.336Z,99.90
2023-04-08T01:44:27.235Z,99.90
2023-04-08T01:46:55.252Z,99.90
2023-04-08T01:49:25.070Z,99.90
2023-04-08T01:51:53.726Z,99.90
2023-04-08T01:54:21.268Z,99.90
2023-04-08T01:56:49.521Z,99.90
2023-04-08T01:59:19.354Z,99.90
2023-04-08T02:01:47.645Z,99.90
2023-04-08T02:04:15.723Z,99.90
2023-04-08T02:06:45.991Z,99.90
2023-04-08T02:09:14.225Z,99.90
2023-04-08T02:11:41.240Z,99.90
2023-04-08T02:14:08.863Z,99.90
2023-04-08T02:16:43.080Z,99.90
2023-04-08T02:19:19.172Z,99.90
2023-04-08T02:21:55.315Z,99.90
2023-04-08T02:24:22.903Z,99.90
2023-04-08T02:26:52.603Z,99.90
2023-04-08T02:29:20.063Z,99.90
2023-04-08T02:31:48.651Z,99.90
2023-04-08T02:34:17.789Z,99.90
2023-04-08T02:36:47.389Z,99.90
2023-04-08T02:39:14.871Z,99.90
2023-04-08T02:41:41.996Z,99.90
2023-04-08T02:44:10.341Z,99.90
2023-04-08T02:46:40.957Z,99.90
2023-04-08T02:49:08.317Z,99.90
2023-04-08T02:51:35.372Z,99.90
2023-04-08T02:54:02.750Z,99.90
2023-04-08T02:56:29.795Z,99.90
2023-04-08T02:58:57.387Z,99.90
2023-04-08T03:01:24.771Z,99.90
2023-04-08T03:03:52.264Z,99.90
2023-04-08T03:06:19.388Z,99.90
2023-04-08T03:08:46.719Z,99.90
2023-04-08T03:11:13.833Z,99.90
2023-04-08T03:13:41.095Z,99.90
2023-04-08T03:16:08.343Z,99.90
2023-04-08T03:18:35.673Z,99.90
2023-04-08T03:21:03.395Z,99.90
2023-04-08T03:23:31.022Z,99.90
2023-04-08T03:25:58.155Z,99.90
2023-04-08T03:28:25.432Z,99.90
2023-04-08T03:30:52.613Z,99.90
2023-04-08T03:33:20.830Z,99.90
2023-04-08T03:35:48.037Z,99.90
2023-04-08T03:38:15.730Z,99.90
2023-04-08T03:40:42.773Z,99.90
2023-04-08T03:43:11.804Z,99.90
2023-04-08T03:45:39.125Z,99.90
2023-04-08T03:48:06.840Z,99.90
2023-04-08T03:50:33.976Z,99.90
2023-04-08T03:53:01.348Z,99.90
2023-04-08T03:55:28.520Z,99.90
2023-04-08T03:57:55.930Z,99.90
2023-04-08T04:00:23.215Z,99.90
2023-04-08T04:02:50.900Z,99.90
2023-04-08T04:05:18.052Z,99.90
2023-04-08T04:07:45.327Z,99.90
2023-04-08T04:10:12.504Z,99.90
2023-04-08T04:12:39.939Z,99.90
2023-04-08T04:15:07.541Z,99.90
2023-04-08T04:17:34.897Z,99.90
2023-04-08T04:20:05.511Z,99.90
2023-04-08T04:22:32.867Z,99.90
2023-04-08T04:25:00.025Z,99.90
2023-04-08T04:27:27.384Z,99.90
2023-04-08T04:29:54.420Z,99.90
2023-04-08T04:32:21.816Z,99.90
2023-04-08T04:34:48.989Z,99.90
2023-04-08T04:37:16.364Z,99.90
2023-04-08T04:39:43.410Z,99.90
2023-04-08T04:42:10.757Z,99.90
2023-04-08T04:44:37.829Z,99.90
2023-04-08T04:47:05.690Z,99.90
2023-04-08T04:49:32.775Z,99.90
2023-04-08T04:52:00.122Z,99.90
2023-04-08T04:54:27.309Z,99.90
2023-04-08T04:56:54.682Z,99.90
2023-04-08T04:59:21.834Z,99.90
2023-04-08T05:01:49.216Z,99.90
2023-04-08T05:04:16.538Z,99.90
2023-04-08T05:06:43.901Z,99.90
2023-04-08T05:09:11.081Z,99.90
2023-04-08T05:11:38.432Z,99.90
2023-04-08T05:14:06.038Z,99.90
2023-04-08T05:16:34.230Z,99.90
2023-04-08T05:19:01.386Z,99.90
2023-04-08T05:21:28.732Z,99.90
2023-04-08T05:23:55.832Z,99.90
2023-04-08T05:26:23.965Z,99.90
2023-04-08T05:28:52.373Z,99.90
2023-04-08T05:31:20.806Z,99.90
2023-04-08T05:33:48.084Z,99.90
2023-04-08T05:36:15.474Z,99.90
2023-04-08T05:38:45.590Z,99.90
2023-04-08T05:41:13.230Z,99.90
2023-04-08T05:43:40.463Z,99.90
2023-04-08T05:46:09.312Z,99.90
2023-04-08T05:48:36.673Z,99.90
2023-04-08T05:51:04.095Z,99.90
2023-04-08T05:53:31.503Z,99.90
2023-04-08T05:55:58.899Z,99.90
2023-04-08T05:58:26.012Z,99.90
2023-04-08T06:00:55.653Z,99.90
2023-04-08T06:03:23.051Z,99.90
2023-04-08T06:05:50.506Z,99.90
2023-04-08T06:08:17.561Z,99.90
2023-04-08T06:10:51.847Z,99.90
2023-04-08T06:13:21.041Z,99.90
2023-04-08T06:15:51.816Z,99.90
2023-04-08T06:18:19.027Z,99.90
2023-04-08T06:20:46.533Z,99.90
2023-04-08T06:23:14.041Z,99.90
2023-04-08T06:25:42.165Z,99.90
2023-04-08T06:28:09.345Z,99.90
2023-04-08T06:30:36.778Z,99.90
2023-04-08T06:33:04.026Z,99.90
2023-04-08T06:35:32.333Z,99.90
2023-04-08T06:37:59.814Z,99.90
2023-04-08T06:40:27.199Z,99.90
2023-04-08T06:42:54.305Z,99.90
2023-04-08T06:45:32.951Z,99.90
2023-04-08T06:48:00.329Z,99.90
2023-04-08T06:50:27.977Z,99.90
2023-04-08T06:52:55.504Z,99.90
2023-04-08T06:55:22.862Z,99.90
2023-04-08T06:57:50.019Z,99.90
2023-04-08T07:00:17.587Z,99.90
2023-04-08T07:02:45.040Z,99.90
2023-04-08T07:05:12.515Z,99.90
2023-04-08T07:07:39.619Z,99.90
2023-04-08T07:10:09.654Z,99.90
2023-04-08T07:12:37.955Z,99.90
2023-04-08T07:15:06.246Z,99.90
2023-04-08T07:17:34.150Z,99.90
2023-04-08T07:20:01.849Z,99.90
2023-04-08T07:22:28.910Z,99.90
2023-04-08T07:24:56.359Z,99.90
2023-04-08T07:27:23.396Z,99.90
2023-04-08T07:29:54.700Z,99.90
2023-04-08T07:32:21.986Z,99.90
2023-04-08T07:34:49.353Z,99.90
2023-04-08T07:37:17.808Z,99.90
2023-04-08T07:39:45.454Z,99.90
2023-04-08T07:42:12.588Z,99.90
2023-04-08T07:44:40.393Z,99.90
2023-04-08T07:47:07.438Z,99.90
2023-04-08T07:49:34.749Z,99.90
2023-04-08T07:52:01.917Z,99.90
2023-04-08T07:54:31.823Z,99.90
2023-04-08T07:56:59.920Z,99.90
2023-04-08T07:59:27.545Z,99.90
2023-04-08T08:01:54.947Z,99.90
2023-04-08T08:04:25.832Z,99.90
2023-04-08T08:06:53.062Z,99.90
2023-04-08T08:09:20.776Z,99.90
2023-04-08T08:11:47.844Z,99.90
2023-04-08T08:14:15.779Z,99.90
2023-04-08T08:16:44.758Z,99.90
2023-04-08T08:19:13.930Z,99.90
2023-04-08T08:21:41.289Z,99.90
2023-04-08T08:24:09.072Z,99.90
2023-04-08T08:26:39.547Z,99.90
2023-04-08T08:29:08.948Z,99.90
2023-04-08T08:31:36.311Z,99.90
2023-04-08T08:34:03.809Z,99.90
2023-04-08T08:36:32.753Z,99.90
2023-04-08T08:39:02.022Z,99.90
2023-04-08T08:41:35.317Z,99.90
2023-04-08T08:44:05.512Z,99.90
2023-04-08T08:46:32.721Z,99.90
2023-04-08T08:49:00.328Z,99.90
2023-04-08T08:51:28.574Z,99.90
2023-04-08T08:53:56.058Z,99.90
2023-04-08T08:56:23.200Z,99.90
2023-04-08T08:58:50.556Z,99.90
2023-04-08T09:01:31.944Z,99.90
2023-04-08T09:04:09.871Z,99.90
2023-04-08T09:06:37.806Z,99.90
2023-04-08T09:09:11.600Z,99.90
2023-04-08T09:11:43.898Z,99.90
2023-04-08T09:14:25.023Z,99.90
2023-04-08T09:16:52.951Z,99.90
2023-04-08T09:19:20.785Z,99.90
2023-04-08T09:22:08.152Z,99.90
2023-04-08T09:24:37.354Z,99.90
2023-04-08T09:27:05.114Z,99.90
2023-04-08T09:29:35.244Z,99.90
2023-04-08T09:32:04.678Z,99.90
2023-04-08T09:34:34.274Z,99.90
2023-04-08T09:37:01.945Z,99.90
2023-04-08T09:39:30.649Z,99.90
2023-04-08T09:42:01.422Z,99.90
2023-04-08T09:44:30.525Z,99.90
2023-04-08T09:47:25.003Z,99.90
2023-04-08T09:49:58.551Z,99.90
2023-04-08T09:52:40.741Z,99.90
2023-04-08T09:55:13.371Z,99.90
2023-04-08T09:57:44.625Z,99.90
2023-04-08T10:00:15.486Z,99.90
2023-04-08T10:03:04.916Z,99.90
2023-04-08T10:05:33.423Z,99.90
2023-04-08T10:08:00.632Z,99.90
2023-04-08T10:10:28.265Z,99.90
2023-04-08T10:12:56.043Z,99.90
2023-04-08T10:15:31.363Z,99.90
2023-04-08T10:18:04.756Z,99.90
2023-04-08T10:20:35.963Z,98.60
2023-04-08T10:23:04.450Z,99.90
2023-04-08T10:25:36.536Z,99.90
2023-04-08T10:28:17.913Z,99.90
2023-04-08T10:30:55.720Z,99.80
2023-04-08T10:33:30.985Z,99.90
2023-04-08T10:36:12.663Z,99.90
2023-04-08T10:38:42.453Z,99.90
2023-04-08T10:41:21.615Z,99.90
2023-04-08T10:43:51.825Z,99.90
2023-04-08T10:46:19.329Z,99.90
2023-04-08T10:49:01.582Z,98.70
2023-04-08T10:51:34.273Z,97.10
2023-04-08T10:54:16.483Z,97.20
2023-04-08T10:56:53.667Z,96.80
2023-04-08T10:59:34.773Z,95.10
2023-04-08T11:02:02.734Z,92.80
2023-04-08T11:04:30.294Z,92.90
2023-04-08T11:06:58.816Z,92.20
2023-04-08T11:09:25.999Z,92.90
2023-04-08T11:11:53.841Z,93.60
2023-04-08T11:14:22.503Z,93.20
2023-04-08T11:16:50.421Z,93.30
2023-04-08T11:19:18.323Z,93.10
2023-04-08T11:21:46.851Z,94.30
2023-04-08T11:24:14.426Z,93.40
2023-04-08T11:26:42.775Z,93.80
2023-04-08T11:29:14.314Z,94.20
2023-04-08T11:31:44.013Z,94.40
2023-04-08T11:34:11.417Z,94.30
2023-04-08T11:36:41.765Z,93.00
2023-04-08T11:39:34.255Z,91.10
2023-04-08T11:42:01.873Z,92.00
2023-04-08T11:44:33.194Z,91.60
2023-04-08T11:47:02.263Z,91.30
2023-04-08T11:49:44.654Z,89.20
2023-04-08T11:52:12.206Z,85.70
2023-04-08T11:54:42.757Z,88.00
2023-04-08T11:57:10.674Z,90.00
2023-04-08T11:59:37.878Z,89.70
2023-04-08T12:02:06.170Z,89.70
2023-04-08T12:04:34.346Z,88.70
2023-04-08T12:07:02.038Z,90.10
2023-04-08T12:09:29.102Z,90.40
2023-04-08T12:11:57.629Z,90.30
2023-04-08T12:14:27.737Z,90.30
2023-04-08T12:16:55.858Z,91.20
2023-04-08T12:19:22.903Z,90.00
2023-04-08T12:21:50.220Z,88.00
2023-04-08T12:24:17.497Z,85.90
2023-04-08T12:26:44.777Z,81.60
2023-04-08T12:29:11.822Z,82.90
2023-04-08T12:31:39.318Z,80.80
2023-04-08T12:34:07.113Z,80.00
2023-04-08T12:36:34.540Z,79.30
2023-04-08T12:39:01.759Z,80.20
2023-04-08T12:41:29.083Z,78.70
2023-04-08T12:43:56.291Z,77.10
2023-04-08T12:46:23.993Z,77.80
2023-04-08T12:49:02.940Z,77.90
2023-04-08T12:51:32.349Z,78.20
2023-04-08T12:54:00.670Z,80.50
2023-04-08T12:56:28.601Z,78.60
2023-04-08T12:58:58.666Z,77.80
2023-04-08T13:01:26.015Z,79.00
2023-04-08T13:03:55.988Z,78.60
2023-04-08T13:06:23.471Z,76.00
2023-04-08T13:08:50.710Z,74.10
2023-04-08T13:11:18.192Z,77.30
2023-04-08T13:13:46.496Z,75.80
2023-04-08T13:16:15.366Z,75.40
2023-04-08T13:18:47.682Z,70.00
2023-04-08T13:21:15.580Z,64.70
2023-04-08T13:23:42.696Z,64.50
2023-04-08T13:26:10.103Z,62.90
2023-04-08T13:28:49.758Z,60.00
2023-04-08T13:31:23.770Z,58.80
2023-04-08T13:33:51.190Z,59.30
2023-04-08T13:36:18.806Z,56.60
2023-04-08T13:38:46.206Z,55.10
2023-04-08T13:41:13.648Z,54.70
2023-04-08T13:43:41.303Z,52.80
2023-04-08T13:46:09.860Z,53.40
2023-04-08T13:48:42.125Z,52.40
2023-04-08T13:51:10.383Z,51.50
2023-04-08T13:53:37.599Z,49.90
2023-04-08T13:58:57.486Z,47.90
2023-04-08T14:01:25.623Z,48.40
2023-04-08T14:03:52.824Z,49.10
2023-04-08T14:06:20.121Z,48.80
2023-04-08T14:08:47.312Z,47.50
2023-04-08T14:11:14.852Z,46.90
2023-04-08T14:13:41.970Z,47.30
2023-04-08T14:16:09.398Z,47.30
2023-04-08T14:18:36.527Z,47.00
2023-04-08T14:21:05.406Z,47.30
2023-04-08T14:23:32.474Z,47.80
2023-04-08T14:26:01.562Z,47.90
2023-04-08T14:28:28.786Z,49.20
2023-04-08T14:30:56.438Z,49.90
2023-04-08T14:33:23.477Z,50.30
2023-04-08T14:35:53.252Z,50.80
2023-04-08T14:38:21.459Z,51.00
2023-04-08T14:40:48.910Z,51.70
2023-04-08T14:43:16.298Z,52.60
2023-04-08T14:45:45.038Z,52.60
2023-04-08T14:48:12.090Z,52.90
2023-04-08T14:50:39.548Z,53.10
2023-04-08T14:53:06.932Z,54.00
2023-04-08T14:55:36.239Z,54.50
2023-04-08T14:58:03.382Z,54.90
2023-04-08T15:00:30.776Z,55.10
2023-04-08T15:02:57.953Z,55.20
2023-04-08T15:05:26.489Z,55.00
2023-04-08T15:07:54.179Z,55.40
2023-04-08T15:10:21.793Z,55.90
2023-04-08T15:12:48.881Z,56.20
2023-04-08T15:15:16.495Z,55.20
2023-04-08T15:17:43.638Z,54.90
2023-04-08T15:20:11.564Z,55.20
2023-04-08T15:22:38.723Z,55.50
2023-04-08T15:25:07.264Z,56.40
2023-04-08T15:27:34.886Z,56.90
2023-04-08T15:30:02.430Z,55.10
2023-04-08T15:32:29.689Z,56.50
2023-04-08T15:34:57.590Z,56.30
2023-04-08T15:37:24.937Z,56.20
2023-04-08T15:39:53.885Z,55.70
2023-04-08T15:42:22.106Z,56.10
2023-04-08T15:44:49.551Z,56.30
2023-04-08T15:47:16.987Z,56.60
2023-04-08T15:49:44.812Z,57.00
2023-04-08T15:52:11.860Z,57.70
2023-04-08T15:54:39.289Z,58.10
2023-04-08T15:57:06.294Z,58.30
2023-04-08T15:59:33.663Z,58.60
2023-04-08T16:02:00.806Z,59.00
2023-04-08T16:04:28.842Z,59.00
2023-04-08T16:06:55.922Z,59.20
2023-04-08T16:09:26.677Z,59.40
2023-04-08T16:11:54.005Z,60.20
2023-04-08T16:14:21.432Z,60.70
2023-04-08T16:16:49.284Z,60.70
2023-04-08T16:19:16.754Z,60.90
2023-04-08T16:21:44.085Z,61.50
2023-04-08T16:24:11.605Z,61.60
2023-04-08T16:26:38.798Z,62.00
2023-04-08T16:29:07.474Z,62.70
2023-04-08T16:31:34.590Z,63.20
2023-04-08T16:34:02.207Z,63.70
2023-04-08T16:36:29.526Z,63.40
2023-04-08T16:38:56.936Z,64.10
2023-04-08T16:41:24.170Z,64.40
2023-04-08T16:43:51.722Z,64.60
2023-04-08T16:46:19.087Z,65.00
2023-04-08T16:48:46.563Z,65.50
2023-04-08T16:51:19.836Z,65.90
2023-04-08T16:53:47.129Z,66.20
2023-04-08T16:56:15.999Z,66.50
2023-04-08T16:58:43.813Z,67.00
2023-04-08T17:01:14.121Z,67.30
2023-04-08T17:03:41.924Z,67.80
2023-04-08T17:06:10.501Z,68.20
2023-04-08T17:08:38.482Z,68.70
2023-04-08T17:11:07.896Z,69.00
2023-04-08T17:13:35.347Z,69.70
2023-04-08T17:16:02.546Z,70.40
2023-04-08T17:18:29.967Z,70.80
2023-04-08T17:20:57.143Z,71.50
2023-04-08T17:23:24.679Z,72.60
2023-04-08T17:25:54.761Z,73.60
2023-04-08T17:28:22.266Z,74.50
2023-04-08T17:30:50.180Z,75.70
2023-04-08T17:33:17.666Z,76.30
2023-04-08T17:35:47.450Z,77.40
2023-04-08T17:38:14.860Z,78.20
2023-04-08T17:40:42.003Z,78.80
2023-04-08T17:43:09.531Z,79.60
2023-04-08T17:45:36.616Z,79.70
2023-04-08T17:48:06.874Z,80.00
2023-04-08T17:50:36.213Z,80.60
2023-04-08T17:53:04.229Z,81.50
2023-04-08T17:55:31.355Z,82.10
2023-04-08T17:57:59.117Z,82.60
2023-04-08T18:00:27.552Z,82.50
2023-04-08T18:02:55.117Z,82.90
2023-04-08T18:05:22.521Z,83.70
2023-04-08T18:07:51.388Z,85.10
2023-04-08T18:10:18.604Z,86.10
2023-04-08T18:12:46.134Z,86.70
2023-04-08T18:15:16.026Z,87.20
2023-04-08T18:17:43.555Z,88.20
2023-04-08T18:20:13.478Z,89.10
2023-04-08T18:22:40.883Z,89.80
2023-04-08T18:25:09.085Z,90.20
2023-04-08T18:27:36.362Z,90.70
2023-04-08T18:30:03.594Z,91.40
2023-04-08T18:32:30.893Z,92.00
2023-04-08T18:34:58.067Z,92.30
2023-04-08T18:37:25.912Z,92.60
2023-04-08T18:39:53.268Z,93.10
2023-04-08T18:42:20.813Z,93.40
2023-04-08T18:44:47.866Z,93.80
2023-04-08T18:47:15.255Z,94.60
2023-04-08T18:49:42.282Z,94.30
2023-04-08T18:52:16.878Z,94.10
2023-04-08T18:54:44.051Z,94.10
2023-04-08T18:57:11.504Z,94.10
2023-04-08T18:59:38.626Z,94.30
2023-04-08T19:02:06.708Z,94.60
2023-04-08T19:04:34.812Z,95.10
2023-04-08T19:07:02.965Z,95.50
2023-04-08T19:09:31.066Z,95.70
2023-04-08T19:11:58.427Z,96.00
2023-04-08T19:14:25.623Z,96.10
2023-04-08T19:16:53.091Z,96.40
2023-04-08T19:19:20.384Z,96.90
2023-04-08T19:21:48.933Z,97.10
2023-04-08T19:24:16.273Z,97.50
2023-04-08T19:26:43.787Z,97.90
2023-04-08T19:29:11.988Z,98.30
2023-04-08T19:31:39.455Z,98.70
2023-04-08T19:34:06.665Z,98.90
2023-04-08T19:36:34.116Z,99.10
2023-04-08T19:39:01.642Z,99.30
2023-04-08T19:41:29.114Z,99.40
2023-04-08T19:43:56.195Z,99.50
2023-04-08T19:46:29.650Z,99.50
2023-04-08T19:48:58.914Z,99.80
2023-04-08T19:51:27.444Z,99.90
2023-04-08T19:53:55.028Z,99.90
2023-04-08T19:56:22.379Z,99.90
2023-04-08T19:58:49.948Z,99.90
2023-04-08T20:01:18.237Z,99.90
2023-04-08T20:03:50.533Z,99.90
2023-04-08T20:06:19.158Z,99.90
2023-04-08T20:08:46.435Z,99.90
2023-04-08T20:11:13.832Z,99.90
2023-04-08T20:13:41.084Z,99.90
2023-04-08T20:16:08.632Z,99.90
2023-04-08T20:18:35.769Z,99.90
2023-04-08T20:21:03.283Z,99.90
2023-04-08T20:23:31.216Z,99.90
2023-04-08T20:25:59.453Z,99.90
2023-04-08T20:28:26.525Z,99.90
2023-04-08T20:30:54.353Z,99.90
2023-04-08T20:33:21.481Z,99.90
2023-04-08T20:35:50.532Z,99.90
2023-04-08T20:38:17.700Z,99.90
2023-04-08T20:40:45.588Z,99.90
2023-04-08T20:43:12.631Z,99.90
2023-04-08T20:45:40.007Z,99.90
2023-04-08T20:48:07.526Z,99.90
2023-04-08T20:50:35.198Z,99.90
2023-04-08T20:53:02.261Z,99.90
2023-04-08T20:55:29.693Z,99.90
2023-04-08T20:57:56.748Z,99.90
2023-04-08T21:00:24.062Z,99.90
2023-04-08T21:02:51.629Z,99.90
2023-04-08T21:05:19.809Z,99.90
2023-04-08T21:07:46.884Z,99.90
2023-04-08T21:10:14.409Z,99.90
2023-04-08T21:12:41.501Z,99.90
2023-04-08T21:15:09.618Z,99.90
2023-04-08T21:17:37.267Z,99.90
2023-04-08T21:20:05.408Z,99.90
2023-04-08T21:22:32.836Z,99.90
2023-04-08T21:25:00.448Z,99.90
2023-04-08T21:27:29.031Z,99.90
2023-04-08T21:29:56.371Z,99.90
2023-04-08T21:32:23.924Z,99.90
2023-04-08T21:34:54.477Z,99.90
2023-04-08T21:37:22.760Z,99.90
2023-04-08T21:39:50.415Z,99.90
2023-04-08T21:42:17.784Z,99.90
2023-04-08T21:44:45.639Z,99.90
2023-04-08T21:47:12.655Z,99.90
2023-04-08T21:49:39.990Z,99.90
2023-04-08T21:52:07.019Z,99.90
2023-04-08T21:54:34.100Z,99.90
2023-04-08T21:57:01.826Z,99.90
2023-04-08T21:59:28.925Z,99.90
2023-04-08T22:01:56.632Z,99.90
2023-04-08T22:04:23.767Z,99.90
2023-04-08T22:06:51.626Z,99.90
2023-04-08T22:09:19.480Z,99.90
2023-04-08T22:11:46.821Z,99.90
2023-04-08T22:14:14.168Z,99.90
2023-04-08T22:16:41.750Z,99.90
2023-04-08T22:19:10.688Z,99.90
2023-04-08T22:21:38.026Z,99.90
2023-04-08T22:24:05.427Z,99.90
2023-04-08T22:26:33.108Z,99.90
2023-04-08T22:29:00.143Z,99.90
2023-04-08T22:31:27.583Z,99.90
2023-04-08T22:33:54.721Z,99.90
2023-04-08T22:36:22.127Z,99.90
2023-04-08T22:38:49.483Z,99.90
2023-04-08T22:41:21.736Z,99.90
2023-04-08T22:43:50.312Z,99.90
2023-04-08T22:46:18.602Z,99.90
2023-04-08T22:48:46.643Z,99.90
2023-04-08T22:51:14.008Z,99.90
2023-04-08T22:53:41.246Z,99.90
2023-04-08T22:56:08.657Z,99.90
2023-04-08T22:58:35.727Z,99.90
2023-04-08T23:01:11.080Z,99.90
2023-04-08T23:03:38.191Z,99.90
2023-04-08T23:06:05.939Z,99.90
2023-04-08T23:08:33.024Z,99.90
2023-04-08T23:11:00.496Z,99.90
2023-04-08T23:13:28.376Z,99.90
2023-04-08T23:15:55.916Z,99.90
2023-04-08T23:18:23.124Z,99.90
2023-04-08T23:20:57.495Z,99.90
2023-04-08T23:23:25.414Z,99.90
2023-04-08T23:25:55.558Z,99.90
2023-04-08T23:28:23.461Z,99.90
2023-04-08T23:30:52.866Z,99.90
2023-04-08T23:33:20.018Z,99.90
2023-04-08T23:35:47.451Z,99.90
2023-04-08T23:38:14.529Z,99.90
2023-04-08T23:40:42.205Z,99.90
2023-04-08T23:43:09.299Z,99.90
2023-04-08T23:45:36.802Z,99.90
2023-04-08T23:48:04.170Z,99.90
2023-04-08T23:50:31.621Z,99.90
2023-04-08T23:52:59.175Z,99.90
2023-04-08T23:55:26.566Z,99.90
2023-04-08T23:57:53.836Z,99.90
